Airfield :







YOU CAN JOIN US ON...

 
LOGIN :

Register | Disclaimer

   EN    FR    IT 

 









Legend :    VFR   Marginal VFR   IFR   Intensive IFR   Very Intensive IFR
Visi :
Ceiling :
>= 8 km
>= 3000ft
5 to 8 km
1000 to 3000 ft
1500m to 5 km
500 to 1000 ft
800 to 1500m
200 to 500 ft
< 800m
< 200 ft
Symbols :   Thunderstorms  Fog  Heavy snow  Heavy precipitations  Wind > 20 kt







- Airport Elevation : 20 ft
- IATA code : BOS


KBOS - General Edward Lawrence Logan International

CURRENT METAR :
  • 160154Z 28009KT 10SM FEW140 SCT180 23/12 A3003 RMK AO2 SLP167 T02330117 $

EXPIRED METARs :
  • 160054Z 27006KT 10SM FEW120 OVC140 24/11 A3003 RMK AO2 SLP167 T02390111 $
  • 152354Z 28009KT 10SM OVC140 24/11 A3002 RMK AO2 SLP166 T02440111 10272 20244 50001 $
  • 152254Z 27010KT 10SM SCT140 BKN200 25/12 A3003 RMK AO2 SLP168 T02500117 $

TAF KBOS
Valid from the 16 at 00:00 until the 17 at 06:00 UTC


152327Z 1600/1706 27007KT P6SM SCT250
FM160500 30005KT P6SM SCT250
FM161500 36005KT P6SM BKN250
FM161800 04005KT P6SM SCT250
FM162000 24006KT P6SM SCT250
FM170100 35006KT P6SM SCT250
No reported NOTAMs for that airfield.



MET'MAP, your aeronautical weather chart ! - Copyright ORBIFLY December 2007 - Disclaimer

ORBIFLY MET'MAP TEAM :

Programming & Development : Alexandra Zaïnal
Concept & Development : Baudouin d'Aumeries
Co-Development & Prog : Marc-Olivier Méhu
Technical & hardware support : Manuel Goepfert

Contact : metmap@orbifly.com




SOURCES & CREDITS :

   NOAA